Latest Weather Observations for Cape Nelson

IDV60801

Issued at 4:31 pm EST Thursday 3 September 2015 (issued every 30 minutes, with the page automatically refreshed every 10 minutes)

About weather observations | Map of weather stations | Latest weather observations for VIC | Other Formats
Station Details ID: 090184 Name: CAPE NELSON LIGHTHOUSE Lat: -38.43 Lon: 141.54 Height: 45.4 m
Data from the previous 72 hours. | See also: Recent months at Cape Nelson
Date/Time
EST
Temp
°C
App
Temp
°C
Dew
Point
Rel
Hum
%
Delta-T
°C
Wind Press
QNH
hPa
Press
MSL
hPa
Rain
since 9 am
mm
Dir
 
Spd
km/h
Gust
km/h
Spd
kts
Gust
kts
03/04:30pm 11.9 6.3 7.0 72 2.3 SSE 26 32 14 17 1021.6 1021.6 0.0
03/04:00pm 11.9 6.7 7.2 73 2.3 SSE 24 32 13 17 1021.3 1021.3 0.0
03/03:30pm 12.2 7.1 7.7 74 2.2 SSE 24 30 13 16 1021.0 1021.0 0.0
03/03:00pm 12.0 5.8 7.7 75 2.1 SSE 30 39 16 21 1020.6 1020.6 0.0
03/02:30pm 12.0 6.0 7.1 72 2.4 SSE 28 39 15 21 1020.2 1020.2 0.0
03/02:00pm 12.1 5.9 7.8 75 2.1 SSE 30 41 16 22 1019.9 1019.9 0.0
03/01:30pm 11.8 5.1 8.3 79 1.7 SSE 33 43 18 23 1019.7 1019.7 0.0
03/01:00pm 11.5 5.1 9.2 86 1.2 SSE 33 46 18 25 1019.6 1019.6 0.0
03/12:30pm 11.5 5.4 9.6 88 1.0 SSE 32 43 17 23 1019.7 1019.7 0.0
03/12:00pm 12.2 6.4 9.6 84 1.3 SSE 30 39 16 21 1019.5 1019.5 0.0
03/11:30am 12.0 5.7 9.6 85 1.2 SSE 33 43 18 23 1019.2 1019.2 0.0
03/11:00am 11.5 5.3 9.4 87 1.1 SSE 32 41 17 22 1018.8 1018.8 0.0
03/10:30am 11.6 4.6 9.9 89 0.9 SSE 37 46 20 25 1018.5 1018.5 0.0
03/10:00am 11.7 4.4 10.1 90 0.8 SSE 39 50 21 27 1018.0 1018.0 0.0
03/09:30am 12.1 4.8 10.3 89 0.9 SSE 39 50 21 27 1017.3 1017.3 0.0
03/09:00am 12.1 5.7 10.7 91 0.7 SSE 35 46 19 25 1016.6 1016.6 2.4
03/08:30am 12.6 7.5 10.5 87 1.1 S 28 35 15 19 1016.1 1016.1 2.4
03/08:00am 12.4 7.3 10.5 88 1.0 S 28 35 15 19 1015.5 1015.5 2.4
03/07:30am 12.1 6.9 10.3 89 0.9 S 28 33 15 18 1014.7 1014.7 2.4
03/07:00am 11.9 6.7 10.3 90 0.8 SSE 28 35 15 19 1013.8 1013.8 2.4
03/06:30am 12.1 7.0 10.5 90 0.8 SSE 28 35 15 19 1013.2 1013.2 2.4
03/06:00am 12.0 6.9 10.6 91 0.7 SSE 28 33 15 18 1012.6 1012.6 2.4
03/05:30am 11.7 6.5 10.1 90 0.8 SSE 28 35 15 19 1011.9 1011.9 2.4
03/05:00am 11.7 6.5 10.3 91 0.7 SSE 28 33 15 18 1011.4 1011.4 2.4
03/04:30am 11.6 7.2 10.3 92 0.7 SSE 24 32 13 17 1010.9 1010.9 2.4
03/04:00am 11.5 7.0 10.1 91 0.7 SSE 24 30 13 16 1010.5 1010.5 2.4
03/03:30am 11.4 6.9 10.0 91 0.7 S 24 32 13 17 1010.1 1010.1 2.4
03/03:00am 11.2 7.0 9.6 90 0.8 SSE 22 28 12 15 1010.3 1010.3 2.4
03/02:30am 11.3 7.6 9.6 89 0.9 S 19 26 10 14 1010.2 1010.2 2.4
03/02:00am 11.2 7.9 9.6 90 0.8 S 17 20 9 11 1009.9 1009.9 2.4
03/01:30am 10.9 9.1 9.3 90 0.8 SE 9 13 5 7 1009.6 1009.6 2.4
03/01:00am 11.0 9.6 9.4 90 0.8 ESE 7 11 4 6 1009.7 1009.7 2.4
03/12:30am 10.9 8.7 9.5 91 0.7 E 11 17 6 9 1009.3 1009.3 2.4
03/12:00am 11.2 8.3 9.6 90 0.8 S 15 19 8 10 1009.4 1009.4 2.4
 
Date/Time
EST
Temp
°C
App
Temp
°C
Dew
Point
Rel
Hum
%
Delta-T
°C
Wind Press
QNH
hPa
Press
MSL
hPa
Rain
since 9 am
mm
Dir
 
Spd
km/h
Gust
km/h
Spd
kts
Gust
kts
02/11:30pm 10.9 8.7 9.5 91 0.7 S 11 15 6 8 1009.3 1009.3 2.4
02/11:00pm 10.7 8.5 9.5 92 0.6 S 11 13 6 7 1009.0 1009.0 2.4
02/10:30pm 10.2 8.7 9.1 93 0.5 SSE 7 9 4 5 1008.7 1008.7 2.4
02/10:00pm 9.8 9.5 8.7 93 0.5 CALM 0 0 0 0 1008.6 1008.6 2.4
02/09:30pm 9.7 9.4 8.6 93 0.5 CALM 0 0 0 0 1008.5 1008.5 2.4
02/09:00pm 9.7 9.4 8.6 93 0.5 CALM 0 4 0 2 1008.2 1008.2 2.4
02/08:30pm 9.9 8.3 8.8 93 0.5 NNE 7 9 4 5 1008.0 1008.0 2.4
02/08:00pm 10.0 8.6 8.9 93 0.5 NW 6 7 3 4 1007.7 1007.7 2.4
02/07:30pm 10.2 8.7 9.1 93 0.5 NNW 7 11 4 6 1007.6 1007.6 2.2
02/07:00pm 10.2 8.7 9.1 93 0.5 NNW 7 11 4 6 1007.4 1007.4 2.2
02/06:30pm 10.2 7.9 9.1 93 0.5 N 11 20 6 11 1006.8 1006.8 2.0
02/06:00pm 10.5 5.8 9.4 93 0.6 NNE 24 33 13 18 1005.8 1005.8 2.0
02/05:30pm 10.9 6.7 9.8 93 0.6 NE 22 30 12 16 1005.4 1005.4 2.0
02/05:00pm 11.0 6.4 9.8 92 0.6 NE 24 35 13 19 1005.0 1005.0 1.8
02/04:30pm 11.0 6.4 9.8 92 0.6 NE 24 32 13 17 1005.0 1005.0 1.6
02/04:00pm 10.8 6.5 9.4 91 0.7 NE 22 37 12 20 1005.1 1005.1 1.6
02/03:30pm 11.2 7.0 9.8 91 0.7 NE 22 30 12 16 1005.1 1005.1 1.6
02/03:00pm 11.1 7.2 9.4 89 0.9 NE 20 32 11 17 1005.3 1005.3 1.4
02/02:30pm 11.7 8.8 9.8 88 1.0 NNE 15 22 8 12 1005.6 1005.6 1.2
02/02:00pm 12.6 10.8 10.7 88 1.0 NNE 11 20 6 11 1005.8 1005.8 1.2
02/01:30pm 12.2 10.9 9.9 86 1.2 N 7 15 4 8 1006.4 1006.4 1.0
02/01:00pm 11.9 9.4 9.6 86 1.2 NNE 13 20 7 11 1006.8 1006.8 1.0
02/12:30pm 11.5 8.1 9.1 85 1.2 NNE 17 28 9 15 1006.9 1006.9 1.0
02/12:00pm 11.5 8.8 9.1 85 1.2 ENE 13 17 7 9 1007.3 1007.3 1.0
02/11:30am 11.2 9.6 8.6 84 1.3 NE 7 13 4 7 1007.3 1007.3 1.0
02/11:00am 11.2 9.0 7.7 79 1.7 NNE 9 15 5 8 1007.5 1007.5 0.0
02/10:30am 11.7 8.6 7.2 74 2.2 NE 13 17 7 9 1007.8 1007.8 0.0
02/10:00am 11.8 8.2 6.9 72 2.4 NNE 15 20 8 11 1008.2 1008.2 0.0
02/09:30am 12.2 8.1 6.0 66 2.9 NNE 17 22 9 12 1008.0 1008.0 0.0
02/09:00am 12.2 7.6 6.3 67 2.8 NE 20 30 11 16 1007.7 1007.7 0.0
02/08:30am 12.3 7.2 5.9 65 3.0 NE 22 28 12 15 1007.8 1007.8 0.0
02/08:00am 12.7 7.6 5.8 63 3.3 NE 22 30 12 16 1007.7 1007.7 0.0
02/07:30am 12.2 7.2 4.7 60 3.4 NE 20 32 11 17 1007.6 1007.6 0.0
02/07:00am 12.1 7.2 4.1 58 3.6 NNE 19 30 10 16 1007.6 1007.6 0.0
02/06:30am 12.3 7.3 4.5 59 3.6 NNE 20 28 11 15 1007.7 1007.7 0.0
02/06:00am 12.3 7.5 4.5 59 3.6 NNE 19 26 10 14 1007.6 1007.6 0.0
02/05:30am 12.1 7.1 4.6 60 3.4 NNE 20 28 11 15 1007.8 1007.8 0.0
02/05:00am 11.9 7.0 4.9 62 3.2 N 20 28 11 15 1008.1 1008.1 0.0
02/04:30am 11.8 7.0 5.4 65 3.0 NNE 20 28 11 15 1007.8 1007.8 0.0
02/04:00am 11.0 6.3 6.0 71 2.3 NNE 20 28 11 15 1008.0 1008.0 0.0
02/03:30am 12.1 6.5 5.5 64 3.1 N 24 32 13 17 1008.2 1008.2 0.0
02/03:00am 12.5 7.1 4.7 59 3.6 NNE 22 32 12 17 1008.4 1008.4 0.0
02/02:30am 12.3 7.0 5.0 61 3.4 N 22 32 12 17 1008.7 1008.7 0.0
02/02:00am 12.2 6.9 5.1 62 3.3 NNE 22 32 12 17 1008.8 1008.8 0.0
02/01:30am 12.2 6.6 5.6 64 3.1 NNE 24 32 13 17 1008.9 1008.9 0.0
02/01:00am 12.1 7.4 6.2 67 2.8 NNE 20 30 11 16 1009.0 1009.0 0.0
02/12:30am 11.7 7.5 8.2 79 1.7 NE 20 28 11 15 1009.4 1009.4 0.0
02/12:00am 12.2 9.3 9.8 85 1.2 NE 15 20 8 11 1009.6 1009.6 0.0
 
Date/Time
EST
Temp
°C
App
Temp
°C
Dew
Point
Rel
Hum
%
Delta-T
°C
Wind Press
QNH
hPa
Press
MSL
hPa
Rain
since 9 am
mm
Dir
 
Spd
km/h
Gust
km/h
Spd
kts
Gust
kts
01/11:30pm 12.4 9.6 10.0 85 1.2 NE 15 20 8 11 1009.9 1009.9 0.0
01/11:00pm 12.3 9.4 9.5 83 1.4 NE 15 19 8 10 1010.2 1010.2 0.0
01/10:30pm 12.4 9.1 9.4 82 1.5 NE 17 22 9 12 1010.3 1010.3 0.0
01/10:00pm 12.4 9.0 9.2 81 1.6 NE 17 22 9 12 1010.4 1010.4 0.0
01/09:30pm 12.6 8.6 9.2 80 1.7 NE 20 24 11 13 1010.6 1010.6 0.0
01/09:00pm 12.7 9.1 9.7 82 1.5 NE 19 24 10 13 1010.7 1010.7 0.0
01/08:30pm 13.0 9.4 10.4 84 1.4 NE 20 28 11 15 1010.7 1010.7 0.0
01/08:00pm 12.7 9.1 10.4 86 1.2 ENE 20 28 11 15 1010.7 1010.7 0.0
01/07:30pm 12.7 9.1 10.4 86 1.2 ENE 20 28 11 15 1010.8 1010.8 0.0
01/07:00pm 12.6 9.4 10.1 85 1.3 NE 17 24 9 13 1011.1 1011.1 0.0
01/06:30pm 12.5 8.3 9.9 84 1.3 ENE 22 30 12 16 1011.0 1011.0 0.0
01/06:00pm 12.5 8.7 9.7 83 1.4 ENE 20 33 11 18 1010.8 1010.8 0.0
01/05:30pm 12.6 8.9 9.4 81 1.6 ENE 19 26 10 14 1010.9 1010.9 0.0
01/05:00pm 12.8 9.1 9.4 80 1.7 E 19 30 10 16 1010.7 1010.7 0.0
01/04:30pm 12.7 7.9 8.8 77 2.0 E 24 32 13 17 1010.6 1010.6 0.0
01/04:00pm 12.6 7.4 8.9 78 1.9 E 26 32 14 17 1011.0 1011.0 0.0
01/03:30pm 12.6 8.0 8.3 75 2.1 E 22 28 12 15 1011.5 1011.5 0.0
01/03:00pm 12.4 8.7 7.9 74 2.2 E 17 24 9 13 1012.0 1012.0 0.0
01/02:30pm 12.5 8.8 8.0 74 2.2 E 17 22 9 12 1012.4 1012.4 0.0
01/02:00pm 11.9 8.0 7.0 72 2.4 ENE 17 22 9 12 1012.7 1012.7 0.0
01/01:30pm 12.0 7.6 6.7 70 2.5 ENE 19 24 10 13 1013.1 1013.1 0.0
01/01:00pm 12.8 8.8 6.8 67 2.9 NE 17 20 9 11 1013.6 1013.6 0.0
01/12:30pm 12.4 8.8 6.9 69 2.6 ENE 15 20 8 11 1014.0 1014.0 0.0
01/12:00pm 11.8 7.4 6.7 71 2.4 ENE 19 24 10 13 1014.4 1014.4 0.0
01/11:30am 12.0 8.4 6.7 70 2.5 E 15 19 8 10 1015.0 1015.0 0.0
01/11:00am 11.5 8.0 5.6 67 2.7 ENE 13 19 7 10 1015.4 1015.4 0.0
01/10:30am 11.2 8.2 6.1 71 2.4 ENE 11 17 6 9 1015.8 1015.8 0.0
01/10:00am 9.5 6.0 5.5 76 1.8 NE 13 15 7 8 1016.2 1016.2 0.0
01/09:30am 8.9 5.4 5.3 78 1.6 NE 13 17 7 9 1016.3 1016.3 0.0
01/09:00am 8.7 5.2 5.3 79 1.5 NE 13 17 7 9 1016.3 1016.3 0.0
01/08:30am 7.6 3.9 4.7 82 1.3 NE 13 19 7 10 1016.2 1016.2 0.0
01/08:00am 6.5 2.8 4.7 88 0.8 NNE 13 19 7 10 1016.3 1016.3 0.0
01/07:30am 5.1 1.2 3.6 90 0.6 NNE 13 17 7 9 1016.3 1016.3 0.0
01/07:00am 4.4 0.0 2.8 89 0.6 NNE 15 17 8 9 1016.0 1016.0 0.0
01/06:30am 3.9 -0.6 2.1 88 0.7 NNE 15 17 8 9 1015.8 1015.8 0.0
01/06:00am 4.4 0.4 2.6 88 0.7 NNE 13 17 7 9 1015.9 1015.9 0.0
01/05:30am 5.0 1.1 3.2 88 0.7 NNE 13 19 7 10 1015.7 1015.7 0.0
01/05:00am 5.4 1.6 3.7 89 0.7 NNE 13 17 7 9 1015.7 1015.7 0.0
01/04:30am 4.5 0.1 2.5 87 0.8 NNE 15 19 8 10 1015.8 1015.8 0.0
01/04:00am 4.5 0.0 2.4 86 0.8 NNE 15 17 8 9 1015.9 1015.9 0.0
01/03:30am 4.1 -0.1 1.8 85 0.9 NNE 13 17 7 9 1016.2 1016.2 0.0
01/03:00am 4.3 0.1 1.7 83 1.0 N 13 15 7 8 1016.8 1016.8 0.0
01/02:30am 5.1 1.0 2.3 82 1.1 N 13 15 7 8 1017.2 1017.2 0.0
01/02:00am 5.4 1.3 2.2 80 1.3 N 13 13 7 7 1017.5 1017.5 0.0
01/01:30am 6.3 2.7 2.8 78 1.5 N 11 13 6 7 1017.8 1017.8 0.0
01/01:00am 7.5 4.5 3.9 78 1.5 N 9 11 5 6 1018.1 1018.1 0.0
01/12:30am 7.9 4.9 4.1 77 1.7 N 9 11 5 6 1018.4 1018.4 0.0
01/12:00am 8.1 5.7 4.1 76 1.7 NNW 6 9 3 5 1018.8 1018.9 0.0
 
Date/Time
EST
Temp
°C
App
Temp
°C
Dew
Point
Rel
Hum
%
Delta-T
°C
Wind Press
QNH
hPa
Press
MSL
hPa
Rain
since 9 am
mm
Dir
 
Spd
km/h
Gust
km/h
Spd
kts
Gust
kts
31/11:30pm 8.3 5.7 4.1 75 1.8 N 7 9 4 5 1018.9 1019.0 0.0
31/11:00pm 8.3 6.9 3.8 73 1.9 CALM 0 0 0 0 1019.1 1019.2 0.0
31/10:30pm 8.6 7.2 3.6 71 2.2 CALM 0 0 0 0 1019.4 1019.5 0.0
31/10:00pm 9.2 6.5 3.6 68 2.4 WNW 7 11 4 6 1019.6 1019.7 0.0
31/09:30pm 9.1 6.6 3.5 68 2.4 SE 6 11 3 6 1019.6 1019.7 0.0
31/09:00pm 8.8 7.2 4.4 74 1.9 NE 2 7 1 4 1019.7 1019.8 0.0
31/08:30pm 9.1 7.0 4.1 71 2.2 ENE 4 9 2 5 1019.8 1019.9 0.0
31/08:00pm 9.3 6.0 4.5 72 2.1 ESE 11 17 6 9 1019.4 1019.5 0.0
31/07:30pm 9.0 7.0 4.6 74 2.0 SE 4 9 2 5 1019.3 1019.4 0.0
31/07:00pm 9.3 6.1 4.9 74 2.0 SSE 11 17 6 9 1019.2 1019.3 0.0
31/06:30pm 9.4 6.7 5.6 77 1.7 SSE 9 13 5 7 1019.2 1019.3 0.0
31/06:00pm 9.6 7.0 6.0 78 1.7 SSE 9 11 5 6 1019.3 1019.4 0.0
31/05:30pm 9.7 6.7 6.2 79 1.6 SE 11 13 6 7 1019.1 1019.2 0.0
31/05:00pm 9.6 5.6 6.5 81 1.4 SSE 17 20 9 11 1019.4 1019.5 0.0

Other Formats:

Comma delimited format used in spreadsheet applications
http://www.bom.gov.au/fwo/IDV60801/IDV60801.94826.axf

JavaScript Object Notation format (JSON) in row-major order
http://www.bom.gov.au/fwo/IDV60801/IDV60801.94826.json